sensor_id;sensor_type;location;lat;lon;timestamp;temperature;humidity
38788;DHT22;24536;45.488;12.238;2023-09-07T00:00:16;25.00;70.10
38788;DHT22;24536;45.488;12.238;2023-09-07T00:02:42;25.10;70.40
38788;DHT22;24536;45.488;12.238;2023-09-07T00:05:08;25.00;70.20
38788;DHT22;24536;45.488;12.238;2023-09-07T00:07:34;25.00;70.20
38788;DHT22;24536;45.488;12.238;2023-09-07T00:10:00;24.90;70.70
38788;DHT22;24536;45.488;12.238;2023-09-07T00:12:26;24.90;70.30
38788;DHT22;24536;45.488;12.238;2023-09-07T00:14:55;24.90;70.40
38788;DHT22;24536;45.488;12.238;2023-09-07T00:17:21;24.90;70.30
38788;DHT22;24536;45.488;12.238;2023-09-07T00:19:47;24.90;70.20
38788;DHT22;24536;45.488;12.238;2023-09-07T00:22:14;24.90;70.20
38788;DHT22;24536;45.488;12.238;2023-09-07T00:24:40;24.80;70.30
38788;DHT22;24536;45.488;12.238;2023-09-07T00:27:06;24.80;70.30
38788;DHT22;24536;45.488;12.238;2023-09-07T00:29:37;24.80;70.50
38788;DHT22;24536;45.488;12.238;2023-09-07T00:32:02;24.70;70.50
38788;DHT22;24536;45.488;12.238;2023-09-07T00:34:28;24.70;70.70
38788;DHT22;24536;45.488;12.238;2023-09-07T00:36:54;24.70;70.70
38788;DHT22;24536;45.488;12.238;2023-09-07T00:39:20;24.70;71.00
38788;DHT22;24536;45.488;12.238;2023-09-07T00:41:45;24.70;70.90
38788;DHT22;24536;45.488;12.238;2023-09-07T00:44:11;24.80;71.00
38788;DHT22;24536;45.488;12.238;2023-09-07T00:46:37;24.80;70.70
38788;DHT22;24536;45.488;12.238;2023-09-07T00:49:03;24.80;70.60
38788;DHT22;24536;45.488;12.238;2023-09-07T00:51:30;24.80;70.50
38788;DHT22;24536;45.488;12.238;2023-09-07T00:53:56;24.80;70.70
38788;DHT22;24536;45.488;12.238;2023-09-07T00:56:22;24.80;70.60
38788;DHT22;24536;45.488;12.238;2023-09-07T00:58:48;24.70;70.60
38788;DHT22;24536;45.488;12.238;2023-09-07T01:01:14;24.70;70.50
38788;DHT22;24536;45.488;12.238;2023-09-07T01:03:40;24.70;70.60
38788;DHT22;24536;45.488;12.238;2023-09-07T01:06:22;24.70;70.60
38788;DHT22;24536;45.488;12.238;2023-09-07T01:08:55;24.80;70.70
38788;DHT22;24536;45.488;12.238;2023-09-07T01:11:24;24.60;70.90
38788;DHT22;24536;45.488;12.238;2023-09-07T01:13:50;24.60;70.90
38788;DHT22;24536;45.488;12.238;2023-09-07T01:16:17;24.60;71.00
38788;DHT22;24536;45.488;12.238;2023-09-07T01:18:45;24.60;71.20
38788;DHT22;24536;45.488;12.238;2023-09-07T01:21:11;24.60;71.10
38788;DHT22;24536;45.488;12.238;2023-09-07T01:23:41;24.60;71.20
38788;DHT22;24536;45.488;12.238;2023-09-07T01:26:07;24.60;71.10
38788;DHT22;24536;45.488;12.238;2023-09-07T01:28:34;24.60;71.40
38788;DHT22;24536;45.488;12.238;2023-09-07T01:31:00;24.60;71.50
38788;DHT22;24536;45.488;12.238;2023-09-07T01:33:27;24.60;71.50
38788;DHT22;24536;45.488;12.238;2023-09-07T01:35:52;24.60;71.30
38788;DHT22;24536;45.488;12.238;2023-09-07T01:38:18;24.60;71.20
38788;DHT22;24536;45.488;12.238;2023-09-07T01:40:44;24.60;71.50
38788;DHT22;24536;45.488;12.238;2023-09-07T01:43:10;24.50;71.20
38788;DHT22;24536;45.488;12.238;2023-09-07T01:45:35;24.50;71.40
38788;DHT22;24536;45.488;12.238;2023-09-07T01:48:02;24.50;71.30
38788;DHT22;24536;45.488;12.238;2023-09-07T01:50:28;24.50;71.90
38788;DHT22;24536;45.488;12.238;2023-09-07T01:52:54;24.50;71.30
38788;DHT22;24536;45.488;12.238;2023-09-07T01:55:20;24.50;71.50
38788;DHT22;24536;45.488;12.238;2023-09-07T01:57:46;24.50;71.60
38788;DHT22;24536;45.488;12.238;2023-09-07T02:00:12;24.40;71.50
38788;DHT22;24536;45.488;12.238;2023-09-07T02:02:38;24.40;71.60
38788;DHT22;24536;45.488;12.238;2023-09-07T02:05:04;24.40;71.70
38788;DHT22;24536;45.488;12.238;2023-09-07T02:07:30;24.40;71.70
38788;DHT22;24536;45.488;12.238;2023-09-07T02:09:57;24.40;71.90
38788;DHT22;24536;45.488;12.238;2023-09-07T02:12:22;24.40;72.00
38788;DHT22;24536;45.488;12.238;2023-09-07T02:14:48;24.40;72.00
38788;DHT22;24536;45.488;12.238;2023-09-07T02:17:14;24.30;71.80
38788;DHT22;24536;45.488;12.238;2023-09-07T02:19:43;24.30;71.90
38788;DHT22;24536;45.488;12.238;2023-09-07T02:22:09;24.20;72.40
38788;DHT22;24536;45.488;12.238;2023-09-07T02:24:35;24.20;72.30
38788;DHT22;24536;45.488;12.238;2023-09-07T02:27:01;24.10;72.50
38788;DHT22;24536;45.488;12.238;2023-09-07T02:29:26;24.10;72.50
38788;DHT22;24536;45.488;12.238;2023-09-07T02:31:52;24.10;72.70
38788;DHT22;24536;45.488;12.238;2023-09-07T02:34:18;24.10;72.90
38788;DHT22;24536;45.488;12.238;2023-09-07T02:36:44;24.10;72.70
38788;DHT22;24536;45.488;12.238;2023-09-07T02:39:10;24.00;72.90
38788;DHT22;24536;45.488;12.238;2023-09-07T02:41:37;24.10;72.80
38788;DHT22;24536;45.488;12.238;2023-09-07T02:44:04;24.10;72.60
38788;DHT22;24536;45.488;12.238;2023-09-07T02:46:30;24.10;72.70
38788;DHT22;24536;45.488;12.238;2023-09-07T02:48:57;24.10;72.70
38788;DHT22;24536;45.488;12.238;2023-09-07T02:51:23;24.10;72.60
38788;DHT22;24536;45.488;12.238;2023-09-07T02:53:50;24.00;72.40
38788;DHT22;24536;45.488;12.238;2023-09-07T02:56:16;24.00;72.40
38788;DHT22;24536;45.488;12.238;2023-09-07T02:58:41;24.10;72.50
38788;DHT22;24536;45.488;12.238;2023-09-07T03:04:15;23.90;72.60
38788;DHT22;24536;45.488;12.238;2023-09-07T03:06:41;23.90;72.60
38788;DHT22;24536;45.488;12.238;2023-09-07T03:09:06;23.90;72.90
38788;DHT22;24536;45.488;12.238;2023-09-07T03:11:35;23.90;73.00
38788;DHT22;24536;45.488;12.238;2023-09-07T03:14:01;23.80;73.10
38788;DHT22;24536;45.488;12.238;2023-09-07T03:16:26;23.70;73.20
38788;DHT22;24536;45.488;12.238;2023-09-07T03:18:52;23.70;73.50
38788;DHT22;24536;45.488;12.238;2023-09-07T03:21:18;23.70;73.30
38788;DHT22;24536;45.488;12.238;2023-09-07T03:23:43;23.60;73.30
38788;DHT22;24536;45.488;12.238;2023-09-07T03:26:10;23.70;73.40
38788;DHT22;24536;45.488;12.238;2023-09-07T03:28:36;23.60;73.40
38788;DHT22;24536;45.488;12.238;2023-09-07T03:31:02;23.70;73.50
38788;DHT22;24536;45.488;12.238;2023-09-07T03:33:28;23.60;73.60
38788;DHT22;24536;45.488;12.238;2023-09-07T03:35:53;23.50;73.80
38788;DHT22;24536;45.488;12.238;2023-09-07T03:38:24;23.50;73.90
38788;DHT22;24536;45.488;12.238;2023-09-07T03:40:50;23.40;73.80
38788;DHT22;24536;45.488;12.238;2023-09-07T03:43:15;23.40;73.90
38788;DHT22;24536;45.488;12.238;2023-09-07T03:45:41;23.40;73.80
38788;DHT22;24536;45.488;12.238;2023-09-07T03:48:07;23.50;73.80
38788;DHT22;24536;45.488;12.238;2023-09-07T03:50:34;23.50;73.70
38788;DHT22;24536;45.488;12.238;2023-09-07T03:52:59;23.60;73.60
38788;DHT22;24536;45.488;12.238;2023-09-07T03:55:25;23.60;73.40
38788;DHT22;24536;45.488;12.238;2023-09-07T03:57:50;23.60;73.20
38788;DHT22;24536;45.488;12.238;2023-09-07T04:00:16;23.60;73.20
38788;DHT22;24536;45.488;12.238;2023-09-07T04:02:43;23.60;73.20
38788;DHT22;24536;45.488;12.238;2023-09-07T04:05:09;23.60;73.10
38788;DHT22;24536;45.488;12.238;2023-09-07T04:07:36;23.70;73.10
38788;DHT22;24536;45.488;12.238;2023-09-07T04:10:02;23.70;73.00
38788;DHT22;24536;45.488;12.238;2023-09-07T04:12:28;23.60;73.00
38788;DHT22;24536;45.488;12.238;2023-09-07T04:14:54;23.70;72.90
38788;DHT22;24536;45.488;12.238;2023-09-07T04:17:19;23.70;72.90
38788;DHT22;24536;45.488;12.238;2023-09-07T04:19:45;23.70;72.70
38788;DHT22;24536;45.488;12.238;2023-09-07T04:22:11;23.70;72.80
38788;DHT22;24536;45.488;12.238;2023-09-07T04:24:37;23.70;72.60
38788;DHT22;24536;45.488;12.238;2023-09-07T04:27:03;23.70;72.60
38788;DHT22;24536;45.488;12.238;2023-09-07T04:29:29;23.70;72.60
38788;DHT22;24536;45.488;12.238;2023-09-07T04:31:55;23.70;72.60
38788;DHT22;24536;45.488;12.238;2023-09-07T04:34:21;23.70;72.50
38788;DHT22;24536;45.488;12.238;2023-09-07T04:36:48;23.60;72.80
38788;DHT22;24536;45.488;12.238;2023-09-07T04:39:14;23.60;72.70
38788;DHT22;24536;45.488;12.238;2023-09-07T04:41:40;23.60;72.60
38788;DHT22;24536;45.488;12.238;2023-09-07T04:44:06;23.70;72.90
38788;DHT22;24536;45.488;12.238;2023-09-07T04:46:31;23.70;72.80
38788;DHT22;24536;45.488;12.238;2023-09-07T04:48:57;23.70;72.70
38788;DHT22;24536;45.488;12.238;2023-09-07T04:51:23;23.70;72.70
38788;DHT22;24536;45.488;12.238;2023-09-07T04:53:51;23.70;73.40
38788;DHT22;24536;45.488;12.238;2023-09-07T04:56:17;23.70;72.80
38788;DHT22;24536;45.488;12.238;2023-09-07T04:58:42;23.60;72.70
38788;DHT22;24536;45.488;12.238;2023-09-07T05:01:10;23.70;72.90
38788;DHT22;24536;45.488;12.238;2023-09-07T05:03:36;23.70;73.00
38788;DHT22;24536;45.488;12.238;2023-09-07T05:06:03;23.70;73.10
38788;DHT22;24536;45.488;12.238;2023-09-07T05:08:29;23.70;73.00
38788;DHT22;24536;45.488;12.238;2023-09-07T05:10:59;23.80;73.00
38788;DHT22;24536;45.488;12.238;2023-09-07T05:13:26;23.80;73.00
38788;DHT22;24536;45.488;12.238;2023-09-07T05:15:53;23.80;73.00
38788;DHT22;24536;45.488;12.238;2023-09-07T05:18:19;23.80;72.90
38788;DHT22;24536;45.488;12.238;2023-09-07T05:20:45;23.80;73.10
38788;DHT22;24536;45.488;12.238;2023-09-07T05:23:15;23.80;73.30
38788;DHT22;24536;45.488;12.238;2023-09-07T05:25:54;23.80;73.00
38788;DHT22;24536;45.488;12.238;2023-09-07T05:28:21;23.80;73.30
38788;DHT22;24536;45.488;12.238;2023-09-07T05:30:47;23.80;73.10
38788;DHT22;24536;45.488;12.238;2023-09-07T05:33:15;23.80;73.20
38788;DHT22;24536;45.488;12.238;2023-09-07T05:35:41;23.80;73.10
38788;DHT22;24536;45.488;12.238;2023-09-07T05:38:08;23.80;72.80
38788;DHT22;24536;45.488;12.238;2023-09-07T05:40:35;23.70;73.00
38788;DHT22;24536;45.488;12.238;2023-09-07T05:43:01;23.70;73.20
38788;DHT22;24536;45.488;12.238;2023-09-07T05:45:40;23.70;72.80
38788;DHT22;24536;45.488;12.238;2023-09-07T05:48:07;23.70;72.90
38788;DHT22;24536;45.488;12.238;2023-09-07T05:50:37;23.70;73.30
38788;DHT22;24536;45.488;12.238;2023-09-07T05:53:03;23.70;73.20
38788;DHT22;24536;45.488;12.238;2023-09-07T05:55:30;23.80;73.10
38788;DHT22;24536;45.488;12.238;2023-09-07T05:57:56;23.70;72.80
38788;DHT22;24536;45.488;12.238;2023-09-07T06:00:22;23.70;72.80
38788;DHT22;24536;45.488;12.238;2023-09-07T06:02:49;23.80;72.80
38788;DHT22;24536;45.488;12.238;2023-09-07T06:05:15;23.80;73.10
38788;DHT22;24536;45.488;12.238;2023-09-07T06:07:41;23.80;73.00
38788;DHT22;24536;45.488;12.238;2023-09-07T06:10:07;23.80;73.90
38788;DHT22;24536;45.488;12.238;2023-09-07T06:12:33;23.80;73.10
38788;DHT22;24536;45.488;12.238;2023-09-07T06:15:00;23.90;73.90
38788;DHT22;24536;45.488;12.238;2023-09-07T06:17:26;23.90;73.80
38788;DHT22;24536;45.488;12.238;2023-09-07T06:19:53;24.00;74.20
38788;DHT22;24536;45.488;12.238;2023-09-07T06:22:19;24.00;74.00
38788;DHT22;24536;45.488;12.238;2023-09-07T06:24:44;24.00;73.50
38788;DHT22;24536;45.488;12.238;2023-09-07T06:27:10;24.00;73.60
38788;DHT22;24536;45.488;12.238;2023-09-07T06:29:36;24.00;73.60
38788;DHT22;24536;45.488;12.238;2023-09-07T06:32:01;24.10;73.90
38788;DHT22;24536;45.488;12.238;2023-09-07T06:34:28;24.10;73.70
38788;DHT22;24536;45.488;12.238;2023-09-07T06:36:53;24.10;74.10
38788;DHT22;24536;45.488;12.238;2023-09-07T06:39:19;24.20;74.40
38788;DHT22;24536;45.488;12.238;2023-09-07T06:41:46;24.20;74.30
38788;DHT22;24536;45.488;12.238;2023-09-07T06:44:12;24.20;74.10
38788;DHT22;24536;45.488;12.238;2023-09-07T06:46:37;24.20;74.20
38788;DHT22;24536;45.488;12.238;2023-09-07T06:49:03;24.30;74.10
38788;DHT22;24536;45.488;12.238;2023-09-07T06:51:31;24.30;74.00
38788;DHT22;24536;45.488;12.238;2023-09-07T06:53:56;24.30;73.00
38788;DHT22;24536;45.488;12.238;2023-09-07T06:56:22;24.40;73.30
38788;DHT22;24536;45.488;12.238;2023-09-07T06:58:48;24.40;72.90
38788;DHT22;24536;45.488;12.238;2023-09-07T07:01:14;24.50;73.10
38788;DHT22;24536;45.488;12.238;2023-09-07T07:03:40;24.50;73.00
38788;DHT22;24536;45.488;12.238;2023-09-07T07:06:06;24.50;72.50
38788;DHT22;24536;45.488;12.238;2023-09-07T07:08:32;24.60;72.40
38788;DHT22;24536;45.488;12.238;2023-09-07T07:10:57;24.60;72.30
38788;DHT22;24536;45.488;12.238;2023-09-07T07:13:23;24.70;72.00
38788;DHT22;24536;45.488;12.238;2023-09-07T07:15:49;24.80;71.90
38788;DHT22;24536;45.488;12.238;2023-09-07T07:18:14;24.80;71.80
38788;DHT22;24536;45.488;12.238;2023-09-07T07:20:41;24.90;71.80
38788;DHT22;24536;45.488;12.238;2023-09-07T07:23:07;25.00;72.00
38788;DHT22;24536;45.488;12.238;2023-09-07T07:25:34;25.00;71.20
38788;DHT22;24536;45.488;12.238;2023-09-07T07:28:04;25.10;71.00
38788;DHT22;24536;45.488;12.238;2023-09-07T07:30:38;25.20;70.90
38788;DHT22;24536;45.488;12.238;2023-09-07T07:33:06;25.20;70.60
38788;DHT22;24536;45.488;12.238;2023-09-07T07:35:33;25.30;70.20
38788;DHT22;24536;45.488;12.238;2023-09-07T07:38:00;25.40;70.30
38788;DHT22;24536;45.488;12.238;2023-09-07T07:40:26;25.40;70.10
38788;DHT22;24536;45.488;12.238;2023-09-07T07:42:52;25.50;69.20
38788;DHT22;24536;45.488;12.238;2023-09-07T07:45:18;25.60;69.50
38788;DHT22;24536;45.488;12.238;2023-09-07T07:47:46;25.70;69.60
38788;DHT22;24536;45.488;12.238;2023-09-07T07:50:12;25.80;69.20
38788;DHT22;24536;45.488;12.238;2023-09-07T07:52:37;25.80;69.10
38788;DHT22;24536;45.488;12.238;2023-09-07T07:55:03;25.90;69.50
38788;DHT22;24536;45.488;12.238;2023-09-07T07:57:29;26.00;69.50
38788;DHT22;24536;45.488;12.238;2023-09-07T07:59:56;26.00;68.50
38788;DHT22;24536;45.488;12.238;2023-09-07T08:02:21;26.10;68.80
38788;DHT22;24536;45.488;12.238;2023-09-07T08:04:47;26.10;68.60
38788;DHT22;24536;45.488;12.238;2023-09-07T08:07:13;26.20;68.70
38788;DHT22;24536;45.488;12.238;2023-09-07T08:09:39;26.30;69.00
38788;DHT22;24536;45.488;12.238;2023-09-07T08:12:05;26.40;68.70
38788;DHT22;24536;45.488;12.238;2023-09-07T08:14:31;26.50;68.80
38788;DHT22;24536;45.488;12.238;2023-09-07T08:16:58;26.60;68.90
38788;DHT22;24536;45.488;12.238;2023-09-07T08:19:24;26.70;68.60
38788;DHT22;24536;45.488;12.238;2023-09-07T08:21:50;26.80;68.50
38788;DHT22;24536;45.488;12.238;2023-09-07T08:24:16;26.90;68.10
38788;DHT22;24536;45.488;12.238;2023-09-07T08:26:42;27.00;68.20
38788;DHT22;24536;45.488;12.238;2023-09-07T08:29:08;27.10;66.90
38788;DHT22;24536;45.488;12.238;2023-09-07T08:31:38;27.20;66.50
38788;DHT22;24536;45.488;12.238;2023-09-07T08:34:08;27.20;67.00
38788;DHT22;24536;45.488;12.238;2023-09-07T08:36:37;27.30;66.30
38788;DHT22;24536;45.488;12.238;2023-09-07T08:39:04;27.30;66.60
38788;DHT22;24536;45.488;12.238;2023-09-07T08:41:37;27.50;66.50
38788;DHT22;24536;45.488;12.238;2023-09-07T08:44:08;27.60;66.00
38788;DHT22;24536;45.488;12.238;2023-09-07T08:46:35;27.60;63.70
38788;DHT22;24536;45.488;12.238;2023-09-07T08:49:03;27.60;65.40
38788;DHT22;24536;45.488;12.238;2023-09-07T08:51:29;27.70;65.20
38788;DHT22;24536;45.488;12.238;2023-09-07T08:53:57;27.90;65.70
38788;DHT22;24536;45.488;12.238;2023-09-07T08:56:23;27.90;64.80
38788;DHT22;24536;45.488;12.238;2023-09-07T08:58:49;28.00;64.40
38788;DHT22;24536;45.488;12.238;2023-09-07T09:01:15;28.10;64.20
38788;DHT22;24536;45.488;12.238;2023-09-07T09:03:42;28.20;64.00
38788;DHT22;24536;45.488;12.238;2023-09-07T09:06:08;28.20;63.10
38788;DHT22;24536;45.488;12.238;2023-09-07T09:09:04;28.30;62.40
38788;DHT22;24536;45.488;12.238;2023-09-07T09:11:32;28.40;62.00
38788;DHT22;24536;45.488;12.238;2023-09-07T09:13:58;28.40;61.80
38788;DHT22;24536;45.488;12.238;2023-09-07T09:16:24;28.40;62.40
38788;DHT22;24536;45.488;12.238;2023-09-07T09:18:57;28.50;63.20
38788;DHT22;24536;45.488;12.238;2023-09-07T09:21:25;28.60;62.70
38788;DHT22;24536;45.488;12.238;2023-09-07T09:23:55;28.80;60.40
38788;DHT22;24536;45.488;12.238;2023-09-07T09:26:22;28.80;60.80
38788;DHT22;24536;45.488;12.238;2023-09-07T09:28:49;28.90;61.50
38788;DHT22;24536;45.488;12.238;2023-09-07T09:31:17;29.10;61.10
38788;DHT22;24536;45.488;12.238;2023-09-07T09:33:49;29.20;60.70
38788;DHT22;24536;45.488;12.238;2023-09-07T09:36:18;29.30;59.50
38788;DHT22;24536;45.488;12.238;2023-09-07T09:38:48;29.40;59.50
38788;DHT22;24536;45.488;12.238;2023-09-07T09:41:16;29.50;58.60
38788;DHT22;24536;45.488;12.238;2023-09-07T09:43:43;29.60;58.80
38788;DHT22;24536;45.488;12.238;2023-09-07T09:46:10;29.70;56.80
38788;DHT22;24536;45.488;12.238;2023-09-07T09:48:36;29.80;57.50
38788;DHT22;24536;45.488;12.238;2023-09-07T09:51:03;29.90;57.90
38788;DHT22;24536;45.488;12.238;2023-09-07T09:53:29;29.90;57.50
38788;DHT22;24536;45.488;12.238;2023-09-07T09:55:56;30.00;57.60
38788;DHT22;24536;45.488;12.238;2023-09-07T09:58:21;30.10;57.60
38788;DHT22;24536;45.488;12.238;2023-09-07T10:00:50;30.20;57.20
38788;DHT22;24536;45.488;12.238;2023-09-07T10:03:29;30.30;57.00
38788;DHT22;24536;45.488;12.238;2023-09-07T10:06:10;30.40;57.00
38788;DHT22;24536;45.488;12.238;2023-09-07T10:08:36;30.50;56.70
38788;DHT22;24536;45.488;12.238;2023-09-07T10:11:08;30.60;56.40
38788;DHT22;24536;45.488;12.238;2023-09-07T10:13:34;30.70;56.30
38788;DHT22;24536;45.488;12.238;2023-09-07T10:16:04;30.70;55.60
38788;DHT22;24536;45.488;12.238;2023-09-07T10:18:37;30.80;56.20
38788;DHT22;24536;45.488;12.238;2023-09-07T10:21:03;30.80;54.80
38788;DHT22;24536;45.488;12.238;2023-09-07T10:23:43;30.90;55.50
38788;DHT22;24536;45.488;12.238;2023-09-07T10:26:16;31.10;55.90
38788;DHT22;24536;45.488;12.238;2023-09-07T10:28:45;31.30;56.30
38788;DHT22;24536;45.488;12.238;2023-09-07T10:31:16;31.50;55.90
38788;DHT22;24536;45.488;12.238;2023-09-07T10:33:42;31.60;55.20
38788;DHT22;24536;45.488;12.238;2023-09-07T10:36:08;31.70;55.30
38788;DHT22;24536;45.488;12.238;2023-09-07T10:38:45;31.80;55.50
38788;DHT22;24536;45.488;12.238;2023-09-07T10:41:10;32.00;55.10
38788;DHT22;24536;45.488;12.238;2023-09-07T10:43:50;32.00;54.60
38788;DHT22;24536;45.488;12.238;2023-09-07T10:46:21;32.20;54.60
38788;DHT22;24536;45.488;12.238;2023-09-07T10:48:52;32.30;55.00
38788;DHT22;24536;45.488;12.238;2023-09-07T10:51:19;32.50;54.20
38788;DHT22;24536;45.488;12.238;2023-09-07T10:53:45;32.50;54.30
38788;DHT22;24536;45.488;12.238;2023-09-07T10:56:10;32.70;53.60
38788;DHT22;24536;45.488;12.238;2023-09-07T10:58:37;32.80;51.60
38788;DHT22;24536;45.488;12.238;2023-09-07T11:01:08;32.80;51.70
38788;DHT22;24536;45.488;12.238;2023-09-07T11:03:37;32.80;51.50
38788;DHT22;24536;45.488;12.238;2023-09-07T11:06:12;32.90;50.90
38788;DHT22;24536;45.488;12.238;2023-09-07T11:08:38;32.90;50.80
38788;DHT22;24536;45.488;12.238;2023-09-07T11:11:04;33.10;51.00
38788;DHT22;24536;45.488;12.238;2023-09-07T11:13:30;33.20;51.10
38788;DHT22;24536;45.488;12.238;2023-09-07T11:15:58;33.30;51.20
38788;DHT22;24536;45.488;12.238;2023-09-07T11:18:25;33.50;50.80
38788;DHT22;24536;45.488;12.238;2023-09-07T11:20:52;33.60;49.70
38788;DHT22;24536;45.488;12.238;2023-09-07T11:23:19;33.70;49.40
38788;DHT22;24536;45.488;12.238;2023-09-07T11:25:47;33.70;50.50
38788;DHT22;24536;45.488;12.238;2023-09-07T11:28:12;33.90;50.20
38788;DHT22;24536;45.488;12.238;2023-09-07T11:30:50;34.20;50.40
38788;DHT22;24536;45.488;12.238;2023-09-07T11:33:16;34.40;49.70
38788;DHT22;24536;45.488;12.238;2023-09-07T11:35:42;34.60;49.60
38788;DHT22;24536;45.488;12.238;2023-09-07T11:38:11;34.80;49.20
38788;DHT22;24536;45.488;12.238;2023-09-07T11:40:37;35.10;49.30
38788;DHT22;24536;45.488;12.238;2023-09-07T11:43:03;35.30;48.10
38788;DHT22;24536;45.488;12.238;2023-09-07T11:45:29;35.50;48.00
38788;DHT22;24536;45.488;12.238;2023-09-07T11:47:54;35.60;47.80
38788;DHT22;24536;45.488;12.238;2023-09-07T11:50:23;35.80;47.60
38788;DHT22;24536;45.488;12.238;2023-09-07T11:52:50;35.90;47.40
38788;DHT22;24536;45.488;12.238;2023-09-07T11:55:16;36.10;47.30
38788;DHT22;24536;45.488;12.238;2023-09-07T11:57:42;36.10;46.10
38788;DHT22;24536;45.488;12.238;2023-09-07T12:00:08;36.30;46.70
38788;DHT22;24536;45.488;12.238;2023-09-07T12:02:37;36.50;46.40
38788;DHT22;24536;45.488;12.238;2023-09-07T12:05:03;36.50;46.10
38788;DHT22;24536;45.488;12.238;2023-09-07T12:07:29;36.70;45.80
38788;DHT22;24536;45.488;12.238;2023-09-07T12:09:56;36.80;43.90
38788;DHT22;24536;45.488;12.238;2023-09-07T12:12:23;36.80;45.30
38788;DHT22;24536;45.488;12.238;2023-09-07T12:14:49;36.80;45.40
38788;DHT22;24536;45.488;12.238;2023-09-07T12:17:15;36.80;44.90
38788;DHT22;24536;45.488;12.238;2023-09-07T12:19:41;36.90;46.20
38788;DHT22;24536;45.488;12.238;2023-09-07T12:22:08;37.00;45.30
38788;DHT22;24536;45.488;12.238;2023-09-07T12:24:33;37.20;44.50
38788;DHT22;24536;45.488;12.238;2023-09-07T12:26:59;37.30;45.00
38788;DHT22;24536;45.488;12.238;2023-09-07T12:29:25;37.30;44.30
38788;DHT22;24536;45.488;12.238;2023-09-07T12:31:51;37.40;44.40
38788;DHT22;24536;45.488;12.238;2023-09-07T12:34:17;37.50;44.40
38788;DHT22;24536;45.488;12.238;2023-09-07T12:36:42;37.40;43.90
38788;DHT22;24536;45.488;12.238;2023-09-07T12:39:08;37.50;43.90
38788;DHT22;24536;45.488;12.238;2023-09-07T12:41:34;37.40;44.30
38788;DHT22;24536;45.488;12.238;2023-09-07T12:43:59;37.40;44.00
38788;DHT22;24536;45.488;12.238;2023-09-07T12:46:25;37.50;44.00
38788;DHT22;24536;45.488;12.238;2023-09-07T12:48:51;37.40;43.70
38788;DHT22;24536;45.488;12.238;2023-09-07T12:51:17;37.40;44.10
38788;DHT22;24536;45.488;12.238;2023-09-07T12:53:42;37.20;43.40
38788;DHT22;24536;45.488;12.238;2023-09-07T12:56:08;37.10;43.70
38788;DHT22;24536;45.488;12.238;2023-09-07T12:58:34;37.00;43.50
38788;DHT22;24536;45.488;12.238;2023-09-07T13:01:00;36.80;43.60
38788;DHT22;24536;45.488;12.238;2023-09-07T13:03:25;36.60;43.00
38788;DHT22;24536;45.488;12.238;2023-09-07T13:05:51;36.30;44.30
38788;DHT22;24536;45.488;12.238;2023-09-07T13:08:17;36.10;44.00
38788;DHT22;24536;45.488;12.238;2023-09-07T13:10:43;35.80;43.80
38788;DHT22;24536;45.488;12.238;2023-09-07T13:13:09;35.50;44.40
38788;DHT22;24536;45.488;12.238;2023-09-07T13:15:34;35.10;44.60
38788;DHT22;24536;45.488;12.238;2023-09-07T13:18:00;34.80;45.30
38788;DHT22;24536;45.488;12.238;2023-09-07T13:20:26;34.60;45.70
38788;DHT22;24536;45.488;12.238;2023-09-07T13:22:52;34.20;45.50
38788;DHT22;24536;45.488;12.238;2023-09-07T13:25:17;34.00;46.40
38788;DHT22;24536;45.488;12.238;2023-09-07T13:27:43;33.80;47.10
38788;DHT22;24536;45.488;12.238;2023-09-07T13:30:09;33.40;47.10
38788;DHT22;24536;45.488;12.238;2023-09-07T13:32:35;33.30;47.60
38788;DHT22;24536;45.488;12.238;2023-09-07T13:35:00;33.10;48.00
38788;DHT22;24536;45.488;12.238;2023-09-07T13:37:26;33.00;48.20
38788;DHT22;24536;45.488;12.238;2023-09-07T13:39:52;32.80;48.30
38788;DHT22;24536;45.488;12.238;2023-09-07T13:42:18;32.70;48.70
38788;DHT22;24536;45.488;12.238;2023-09-07T13:44:43;32.60;48.30
38788;DHT22;24536;45.488;12.238;2023-09-07T13:47:11;32.40;48.80
38788;DHT22;24536;45.488;12.238;2023-09-07T13:49:36;32.30;48.40
38788;DHT22;24536;45.488;12.238;2023-09-07T13:52:02;32.30;48.80
38788;DHT22;24536;45.488;12.238;2023-09-07T13:54:28;32.10;48.60
38788;DHT22;24536;45.488;12.238;2023-09-07T13:56:54;32.00;49.10
38788;DHT22;24536;45.488;12.238;2023-09-07T13:59:20;32.00;49.50
38788;DHT22;24536;45.488;12.238;2023-09-07T14:01:46;31.90;49.60
38788;DHT22;24536;45.488;12.238;2023-09-07T14:04:11;31.90;50.00
38788;DHT22;24536;45.488;12.238;2023-09-07T14:06:37;31.80;50.50
38788;DHT22;24536;45.488;12.238;2023-09-07T14:09:03;31.70;50.30
38788;DHT22;24536;45.488;12.238;2023-09-07T14:11:29;31.60;49.60
38788;DHT22;24536;45.488;12.238;2023-09-07T14:13:56;31.60;49.40
38788;DHT22;24536;45.488;12.238;2023-09-07T14:16:22;31.60;49.60
38788;DHT22;24536;45.488;12.238;2023-09-07T14:18:48;31.50;49.40
38788;DHT22;24536;45.488;12.238;2023-09-07T14:21:14;31.50;49.50
38788;DHT22;24536;45.488;12.238;2023-09-07T14:23:40;31.50;50.00
38788;DHT22;24536;45.488;12.238;2023-09-07T14:26:08;31.40;49.80
38788;DHT22;24536;45.488;12.238;2023-09-07T14:28:34;31.40;49.80
38788;DHT22;24536;45.488;12.238;2023-09-07T14:31:00;31.30;49.90
38788;DHT22;24536;45.488;12.238;2023-09-07T14:33:29;31.30;49.80
38788;DHT22;24536;45.488;12.238;2023-09-07T14:35:55;31.30;49.90
38788;DHT22;24536;45.488;12.238;2023-09-07T14:38:21;31.20;49.50
38788;DHT22;24536;45.488;12.238;2023-09-07T14:40:49;31.20;49.40
38788;DHT22;24536;45.488;12.238;2023-09-07T14:43:16;31.10;49.60
38788;DHT22;24536;45.488;12.238;2023-09-07T14:45:43;31.20;49.90
38788;DHT22;24536;45.488;12.238;2023-09-07T14:48:09;31.10;50.30
38788;DHT22;24536;45.488;12.238;2023-09-07T14:50:34;31.00;50.50
38788;DHT22;24536;45.488;12.238;2023-09-07T14:53:00;31.00;51.20
38788;DHT22;24536;45.488;12.238;2023-09-07T14:55:26;31.00;51.30
38788;DHT22;24536;45.488;12.238;2023-09-07T14:57:51;30.90;51.50
38788;DHT22;24536;45.488;12.238;2023-09-07T15:00:17;30.90;51.60
38788;DHT22;24536;45.488;12.238;2023-09-07T15:02:43;30.90;51.90
38788;DHT22;24536;45.488;12.238;2023-09-07T15:05:09;30.90;51.90
38788;DHT22;24536;45.488;12.238;2023-09-07T15:07:37;30.90;51.90
38788;DHT22;24536;45.488;12.238;2023-09-07T15:10:02;30.80;52.40
38788;DHT22;24536;45.488;12.238;2023-09-07T15:12:30;30.70;51.70
38788;DHT22;24536;45.488;12.238;2023-09-07T15:14:55;30.70;51.40